Time;durP1;ratioP1;P1;durP2;ratioP2;P2;SDS_P1;SDS_P2;PMS_P1;PMS_P2;Temp;Humidity;BMP_temperature;BMP_pressure;BME280_temperature;BME280_humidity;BME280_pressure;Samples;Min_cycle;Max_cycle;Signal;HPM_P1;HPM_P2
2022/11/23 00:00:54;;;;;;;21.40;9.57;;;10.40;99.90;;;;;;5028901;28;20442;-67
2022/11/23 00:03:20;;;;;;;19.80;10.50;;;10.30;99.90;;;;;;5033489;28;20042;-67
2022/11/23 00:05:45;;;;;;;17.45;11.38;;;10.30;99.90;;;;;;5031219;28;20044;-67
2022/11/23 00:08:11;;;;;;;19.15;11.68;;;10.40;99.90;;;;;;5035331;28;20037;-67
2022/11/23 00:10:36;;;;;;;21.10;8.90;;;10.30;99.90;;;;;;5032183;28;20037;-67
2022/11/23 00:13:02;;;;;;;13.30;8.20;;;10.50;99.90;;;;;;5030565;28;20065;-67
2022/11/23 00:15:27;;;;;;;16.73;9.15;;;10.50;99.90;;;;;;5033072;28;20045;-67
2022/11/23 00:17:53;;;;;;;18.92;9.80;;;10.50;99.90;;;;;;5034542;28;20033;-67
2022/11/23 00:20:19;;;;;;;18.40;10.07;;;10.40;99.90;;;;;;5035148;28;20033;-67
2022/11/23 00:22:44;;;;;;;14.93;9.32;;;10.60;99.90;;;;;;5033108;28;20037;-67
2022/11/23 00:25:10;;;;;;;20.85;10.52;;;10.60;99.90;;;;;;5031858;28;20415;-67
2022/11/23 00:27:35;;;;;;;19.70;10.55;;;10.40;99.90;;;;;;5030481;28;20529;-67
2022/11/23 00:30:01;;;;;;;17.30;8.68;;;10.60;99.90;;;;;;5031489;28;20034;-67
2022/11/23 00:32:28;;;;;;;18.08;9.63;;;10.70;99.90;;;;;;5031160;28;20120;-67
2022/11/23 00:34:54;;;;;;;15.55;8.27;;;10.70;99.90;;;;;;5028833;28;20034;-67
2022/11/23 00:37:19;;;;;;;12.55;6.82;;;10.80;99.90;;;;;;5014649;28;20058;-67
2022/11/23 00:39:45;;;;;;;26.02;11.73;;;10.60;99.90;;;;;;5032500;28;20116;-67
2022/11/23 00:42:10;;;;;;;21.75;11.25;;;10.80;99.90;;;;;;5029444;28;20042;-67
2022/11/23 00:44:36;;;;;;;17.80;10.07;;;10.60;99.90;;;;;;5029576;28;20380;-67
2022/11/23 00:47:02;;;;;;;19.95;9.60;;;10.80;99.90;;;;;;5030918;28;20079;-67
2022/11/23 00:49:27;;;;;;;16.75;9.00;;;10.60;99.90;;;;;;5031418;28;20049;-67
2022/11/23 00:51:53;;;;;;;13.82;8.45;;;10.70;99.90;;;;;;5030047;28;20040;-67
2022/11/23 00:54:18;;;;;;;15.95;8.82;;;10.80;99.90;;;;;;5028840;28;20052;-67
2022/11/23 00:56:44;;;;;;;22.35;9.50;;;10.70;99.90;;;;;;5029811;28;20402;-67
2022/11/23 00:59:09;;;;;;;20.48;10.88;;;10.80;99.90;;;;;;5026078;28;20038;-67
2022/11/23 01:01:38;;;;;;;29.95;13.65;;;10.80;99.90;;;;;;5031083;28;20044;-67
2022/11/23 01:04:06;;;;;;;20.88;10.73;;;10.70;99.90;;;;;;5030311;28;20041;-67
2022/11/23 01:06:38;;;;;;;22.13;12.80;;;10.90;99.90;;;;;;5030390;28;20042;-67
2022/11/23 01:09:16;;;;;;;20.25;10.10;;;10.80;99.90;;;;;;5033193;28;20124;-67
2022/11/23 01:11:42;;;;;;;21.88;10.20;;;10.60;99.90;;;;;;5028707;28;20092;-67
2022/11/23 01:14:08;;;;;;;22.20;11.02;;;10.80;99.90;;;;;;5031060;28;20576;-67
2022/11/23 01:16:39;;;;;;;15.60;9.40;;;10.70;99.90;;;;;;5025948;28;20168;-67
2022/11/23 01:19:07;;;;;;;18.15;11.32;;;10.70;99.90;;;;;;5028494;28;20075;-67
2022/11/23 01:21:34;;;;;;;21.98;11.13;;;10.80;99.90;;;;;;5030609;28;20052;-67
2022/11/23 01:24:03;;;;;;;18.65;12.05;;;10.70;99.90;;;;;;5024834;28;20045;-65
2022/11/23 01:26:28;;;;;;;24.63;15.77;;;10.80;99.90;;;;;;5031066;28;20045;-65
2022/11/23 01:28:54;;;;;;;18.75;9.45;;;10.60;99.90;;;;;;5028998;28;20052;-65
2022/11/23 01:31:22;;;;;;;21.88;10.40;;;10.70;99.90;;;;;;5027919;28;20041;-65
2022/11/23 01:33:53;;;;;;;21.00;12.40;;;10.80;99.90;;;;;;5029704;28;20061;-65
2022/11/23 01:36:20;;;;;;;16.77;10.30;;;10.50;99.90;;;;;;5032302;28;20029;-65
2022/11/23 01:38:47;;;;;;;17.92;10.30;;;10.50;99.90;;;;;;5026981;28;20038;-65
2022/11/23 01:41:16;;;;;;;23.30;11.80;;;10.60;99.90;;;;;;5031604;28;20037;-65
2022/11/23 01:43:42;;;;;;;29.05;12.27;;;10.50;99.90;;;;;;5027736;28;20569;-65
2022/11/23 01:46:08;;;;;;;29.40;16.23;;;10.70;99.90;;;;;;5027501;28;20033;-65
2022/11/23 01:48:42;;;;;;;19.42;13.00;;;10.50;99.90;;;;;;5029248;28;20095;-65
2022/11/23 01:51:14;;;;;;;21.30;12.65;;;10.50;99.90;;;;;;5032618;28;20068;-65
2022/11/23 01:53:41;;;;;;;16.13;11.00;;;10.80;99.90;;;;;;5025444;28;20049;-65
2022/11/23 01:56:10;;;;;;;25.73;13.80;;;10.80;99.90;;;;;;5027310;28;20084;-65
2022/11/23 01:58:41;;;;;;;22.55;13.70;;;10.60;99.90;;;;;;5030135;28;20064;-65
2022/11/23 02:01:07;;;;;;;28.77;16.20;;;10.70;99.90;;;;;;5032092;28;20042;-65
2022/11/23 02:03:35;;;;;;;29.25;16.77;;;10.70;99.90;;;;;;5030752;28;20041;-65
2022/11/23 02:06:04;;;;;;;35.40;18.48;;;10.80;99.90;;;;;;5028377;28;20064;-65
2022/11/23 02:08:30;;;;;;;39.42;19.70;;;10.80;99.90;;;;;;5015286;28;20158;-65
2022/11/23 02:10:57;;;;;;;26.42;13.68;;;10.60;99.90;;;;;;5033256;28;20087;-65
2022/11/23 02:13:24;;;;;;;23.60;14.48;;;10.80;99.90;;;;;;5024392;28;20095;-65
2022/11/23 02:15:51;;;;;;;25.20;16.45;;;10.60;99.90;;;;;;5023283;28;20031;-66
2022/11/23 02:18:22;;;;;;;23.30;13.50;;;10.60;99.90;;;;;;5021163;28;20052;-65
2022/11/23 02:20:48;;;;;;;26.42;15.05;;;10.80;99.90;;;;;;5028446;28;20050;-65
2022/11/23 02:23:14;;;;;;;35.90;18.17;;;10.80;99.90;;;;;;5029772;28;20049;-66
2022/11/23 02:25:43;;;;;;;29.55;18.63;;;10.60;99.90;;;;;;5031193;28;20041;-65
2022/11/23 02:28:18;;;;;;;41.42;21.65;;;10.60;99.90;;;;;;5026799;28;20514;-65
2022/11/23 02:30:48;;;;;;;34.03;18.52;;;10.50;99.90;;;;;;5030299;28;20033;-65
2022/11/23 02:33:13;;;;;;;19.45;12.98;;;10.70;99.90;;;;;;5027967;28;20464;-65
2022/11/23 02:35:49;;;;;;;30.60;17.70;;;10.50;99.90;;;;;;5031806;28;20048;-65
2022/11/23 02:38:15;;;;;;;21.38;13.85;;;10.50;99.90;;;;;;5031180;28;20037;-65
2022/11/23 02:40:41;;;;;;;25.38;16.02;;;10.80;99.90;;;;;;5019262;28;20053;-65
2022/11/23 02:43:07;;;;;;;29.77;19.00;;;10.50;99.90;;;;;;5027223;28;20037;-65
2022/11/23 02:45:48;;;;;;;27.60;16.33;;;10.70;99.90;;;;;;5031220;28;20124;-65
2022/11/23 02:48:14;;;;;;;31.65;19.85;;;10.60;99.90;;;;;;5030984;28;20108;-65
2022/11/23 02:50:40;;;;;;;37.30;22.27;;;10.20;99.90;;;;;;5029812;28;20179;-65
2022/11/23 02:53:06;;;;;;;30.35;18.17;;;11.10;99.90;;;;;;5031513;28;20045;-65
2022/11/23 02:55:32;;;;;;;28.65;17.42;;;10.50;99.90;;;;;;5030450;28;20041;-65
2022/11/23 02:57:57;;;;;;;35.20;18.65;;;10.40;99.90;;;;;;5025535;28;20503;-65
2022/11/23 03:00:23;;;;;;;29.10;15.43;;;10.60;99.90;;;;;;5029344;28;20037;-65
2022/11/23 03:02:48;;;;;;;26.98;16.95;;;10.50;99.90;;;;;;5031940;28;20109;-65
2022/11/23 03:05:14;;;;;;;39.28;22.75;;;10.60;99.90;;;;;;5022257;28;20041;-65
2022/11/23 03:07:40;;;;;;;37.38;21.48;;;10.60;99.90;;;;;;5030391;28;20029;-65
2022/11/23 03:10:06;;;;;;;41.95;23.65;;;10.30;99.90;;;;;;5028278;28;20044;-65
2022/11/23 03:12:31;;;;;;;31.98;19.52;;;10.50;99.90;;;;;;5030994;28;20053;-65
2022/11/23 03:14:57;;;;;;;30.85;18.58;;;10.20;99.90;;;;;;5030988;28;20056;-65
2022/11/23 03:17:23;;;;;;;35.33;19.33;;;10.30;99.90;;;;;;5031202;28;20092;-65
2022/11/23 03:19:48;;;;;;;35.85;19.45;;;10.20;99.90;;;;;;5029824;28;20458;-65
2022/11/23 03:22:14;;;;;;;36.17;21.92;;;10.20;99.90;;;;;;5032050;28;20072;-65
2022/11/23 03:24:39;;;;;;;41.67;23.58;;;10.20;99.90;;;;;;5029419;28;20037;-65
2022/11/23 03:27:05;;;;;;;32.25;21.00;;;10.50;99.90;;;;;;5028695;28;20033;-65
2022/11/23 03:29:30;;;;;;;42.10;23.33;;;10.20;99.90;;;;;;5029916;28;20069;-65
2022/11/23 03:31:56;;;;;;;27.75;16.50;;;10.40;99.90;;;;;;5031070;28;20056;-65
2022/11/23 03:34:22;;;;;;;26.98;14.20;;;10.20;99.90;;;;;;5031646;28;20041;-65
2022/11/23 03:36:48;;;;;;;30.02;17.05;;;10.10;99.90;;;;;;5032086;28;20087;-65
2022/11/23 03:39:13;;;;;;;26.45;16.08;;;10.30;99.90;;;;;;5026729;28;20045;-65
2022/11/23 03:41:39;;;;;;;26.77;15.10;;;10.10;99.90;;;;;;5027364;28;20049;-65
2022/11/23 03:44:04;;;;;;;35.00;21.35;;;10.10;99.90;;;;;;5025369;28;20124;-65
2022/11/23 03:46:30;;;;;;;43.53;23.20;;;10.00;99.90;;;;;;5027526;28;20038;-65
2022/11/23 03:48:55;;;;;;;36.08;22.35;;;10.30;99.90;;;;;;5028380;28;20037;-65
2022/11/23 03:51:21;;;;;;;38.80;22.00;;;10.10;99.90;;;;;;5031108;28;20116;-65
2022/11/23 03:53:47;;;;;;;34.47;19.27;;;10.40;99.90;;;;;;5025481;28;20081;-65
2022/11/23 03:56:13;;;;;;;33.50;20.70;;;10.10;99.90;;;;;;5028756;28;20033;-65
2022/11/23 03:58:39;;;;;;;37.45;20.65;;;10.10;99.90;;;;;;5025735;28;20041;-65
2022/11/23 04:01:04;;;;;;;36.42;20.77;;;10.10;99.90;;;;;;5025859;28;20411;-65
2022/11/23 04:03:30;;;;;;;33.03;21.48;;;10.40;99.90;;;;;;5027052;28;20056;-65
2022/11/23 04:05:55;;;;;;;39.80;21.90;;;10.20;99.90;;;;;;5011526;28;20038;-65
2022/11/23 04:08:21;;;;;;;40.47;24.15;;;10.40;99.90;;;;;;5029124;28;20069;-65
2022/11/23 04:10:46;;;;;;;44.90;25.33;;;10.00;99.90;;;;;;5024667;28;20046;-66
2022/11/23 04:13:12;;;;;;;36.42;19.98;;;10.10;99.90;;;;;;5027709;28;20521;-65
2022/11/23 04:15:37;;;;;;;27.45;18.10;;;9.90;99.90;;;;;;5031083;28;20129;-65
2022/11/23 04:18:03;;;;;;;31.45;17.23;;;10.10;99.90;;;;;;5034864;28;20037;-65
2022/11/23 04:20:29;;;;;;;39.20;19.52;;;9.80;99.90;;;;;;5034220;28;20033;-65
2022/11/23 04:22:54;;;;;;;32.90;17.83;;;9.90;99.90;;;;;;5032710;28;20043;-65
2022/11/23 04:25:20;;;;;;;35.92;19.50;;;9.90;99.90;;;;;;5033293;28;20117;-65
2022/11/23 04:27:46;;;;;;;38.83;22.05;;;9.90;99.90;;;;;;5023600;28;20049;-65
2022/11/23 04:30:12;;;;;;;31.20;19.42;;;9.90;99.90;;;;;;5029368;28;20045;-65
2022/11/23 04:32:37;;;;;;;34.47;18.75;;;10.10;99.90;;;;;;5032155;28;20041;-65
2022/11/23 04:35:03;;;;;;;33.72;18.42;;;10.00;99.90;;;;;;5032766;28;20045;-65
2022/11/23 04:37:29;;;;;;;32.13;18.20;;;9.90;99.90;;;;;;5035026;28;20045;-65
2022/11/23 04:39:54;;;;;;;33.00;17.75;;;10.20;99.90;;;;;;5034065;28;20033;-65
2022/11/23 04:42:20;;;;;;;38.03;20.08;;;10.20;99.90;;;;;;5034906;28;20038;-65
2022/11/23 04:44:46;;;;;;;29.17;18.13;;;9.90;99.90;;;;;;5033305;28;20036;-65
2022/11/23 04:47:11;;;;;;;37.33;20.20;;;9.90;99.90;;;;;;5034071;28;20605;-65
2022/11/23 04:49:37;;;;;;;39.97;21.33;;;10.10;99.90;;;;;;5030271;28;20064;-65
2022/11/23 04:52:04;;;;;;;40.22;21.98;;;10.00;99.90;;;;;;5034009;28;20068;-65
2022/11/23 04:54:29;;;;;;;28.60;17.90;;;10.10;99.90;;;;;;5033793;28;20041;-65
2022/11/23 04:56:55;;;;;;;33.28;16.83;;;10.10;99.90;;;;;;5029322;28;20026;-65
2022/11/23 04:59:21;;;;;;;34.58;16.75;;;9.90;99.90;;;;;;5030285;28;20033;-65
2022/11/23 05:01:48;;;;;;;23.75;15.52;;;9.80;99.90;;;;;;5034596;28;20045;-65
2022/11/23 05:04:13;;;;;;;36.05;20.40;;;9.90;99.90;;;;;;5032960;28;20042;-65
2022/11/23 05:06:39;;;;;;;33.83;18.48;;;10.00;99.90;;;;;;5033901;28;20096;-65
2022/11/23 05:09:04;;;;;;;34.03;20.27;;;10.00;99.90;;;;;;5031944;28;20037;-65
2022/11/23 05:11:30;;;;;;;37.80;20.20;;;10.10;99.90;;;;;;5032315;28;20414;-65
2022/11/23 05:13:55;;;;;;;31.85;16.25;;;10.10;99.90;;;;;;5032983;28;20570;-66
2022/11/23 05:16:21;;;;;;;35.45;17.67;;;10.40;99.90;;;;;;5034242;28;20072;-65
2022/11/23 05:18:46;;;;;;;28.08;14.00;;;10.10;99.90;;;;;;5031757;28;20025;-65
2022/11/23 05:21:12;;;;;;;23.83;13.55;;;10.30;99.90;;;;;;5032364;28;20034;-65
2022/11/23 05:23:38;;;;;;;29.52;14.23;;;10.40;99.90;;;;;;5032246;28;20030;-65
2022/11/23 05:26:03;;;;;;;28.45;17.52;;;10.30;99.90;;;;;;5032433;28;20091;-65
2022/11/23 05:28:29;;;;;;;24.92;14.48;;;10.10;99.90;;;;;;5026455;28;20037;-65
2022/11/23 05:30:54;;;;;;;23.40;13.40;;;10.10;99.90;;;;;;5031446;28;20045;-65
2022/11/23 05:33:20;;;;;;;28.17;16.50;;;10.40;99.90;;;;;;5030432;28;20131;-65
2022/11/23 05:35:45;;;;;;;31.75;14.15;;;10.30;99.90;;;;;;5031649;28;20499;-65
2022/11/23 05:38:11;;;;;;;34.30;19.33;;;10.40;99.90;;;;;;5031994;28;20120;-65
2022/11/23 05:40:36;;;;;;;23.95;14.45;;;10.20;99.90;;;;;;5030534;28;20034;-65
2022/11/23 05:43:03;;;;;;;31.45;15.90;;;10.10;99.90;;;;;;5029939;28;20108;-65
2022/11/23 05:45:28;;;;;;;33.15;16.92;;;10.30;99.90;;;;;;5033651;28;20037;-65
2022/11/23 05:47:56;;;;;;;31.83;19.10;;;10.50;99.90;;;;;;5030701;28;20458;-65
2022/11/23 05:50:25;;;;;;;25.67;13.88;;;10.20;99.90;;;;;;5032520;28;20045;-65
2022/11/23 05:52:50;;;;;;;27.52;15.18;;;10.50;99.90;;;;;;5032543;28;20407;-66
2022/11/23 05:55:16;;;;;;;33.17;17.85;;;10.40;99.90;;;;;;5031400;28;20047;-65
2022/11/23 05:57:42;;;;;;;30.23;16.60;;;10.40;99.90;;;;;;5026203;28;20041;-66
2022/11/23 06:00:10;;;;;;;27.50;18.02;;;10.20;99.90;;;;;;5032082;28;20514;-65
2022/11/23 06:02:36;;;;;;;21.25;13.60;;;10.40;99.90;;;;;;5027267;28;20042;-65
2022/11/23 06:05:02;;;;;;;30.38;17.15;;;10.20;99.90;;;;;;5022055;28;20041;-65
2022/11/23 06:07:28;;;;;;;39.03;20.30;;;10.40;99.90;;;;;;5033372;28;20052;-65
2022/11/23 06:09:53;;;;;;;27.67;19.63;;;10.50;99.90;;;;;;5033259;28;20132;-65
2022/11/23 06:12:19;;;;;;;31.58;17.55;;;10.60;99.90;;;;;;5030475;28;20475;-65
2022/11/23 06:14:44;;;;;;;19.83;12.90;;;10.30;99.90;;;;;;5032670;28;20110;-65
2022/11/23 06:17:10;;;;;;;28.90;16.98;;;10.60;99.90;;;;;;5022876;28;20120;-65
2022/11/23 06:19:35;;;;;;;20.38;12.73;;;10.40;99.90;;;;;;5014438;28;20034;-65
2022/11/23 06:22:01;;;;;;;25.35;14.18;;;10.50;99.90;;;;;;5013505;28;20109;-65
2022/11/23 06:24:26;;;;;;;28.92;16.88;;;10.50;99.90;;;;;;5022183;28;20037;-65
2022/11/23 06:26:52;;;;;;;32.70;21.23;;;10.50;99.90;;;;;;5031251;28;20037;-65
2022/11/23 06:29:19;;;;;;;35.78;21.70;;;10.40;99.90;;;;;;5032732;28;20498;-65
2022/11/23 06:31:45;;;;;;;30.77;18.77;;;10.70;99.90;;;;;;5030762;28;20167;-65
2022/11/23 06:34:11;;;;;;;35.97;21.60;;;10.60;99.90;;;;;;5032410;28;20033;-65
2022/11/23 06:36:36;;;;;;;33.92;22.05;;;10.70;99.90;;;;;;5027289;28;20491;-65
2022/11/23 06:39:02;;;;;;;27.27;17.35;;;10.70;99.90;;;;;;5025546;28;21350;-65
2022/11/23 06:41:28;;;;;;;27.38;16.50;;;10.70;99.90;;;;;;5025382;28;20033;-65
2022/11/23 06:43:53;;;;;;;31.45;18.60;;;10.60;99.90;;;;;;5027492;28;20495;-65
2022/11/23 06:46:19;;;;;;;26.52;17.25;;;10.70;99.90;;;;;;5030283;28;20041;-65
2022/11/23 06:48:46;;;;;;;28.42;13.63;;;10.60;99.90;;;;;;5022852;28;20057;-65
2022/11/23 06:51:12;;;;;;;28.95;17.58;;;10.70;99.90;;;;;;5025289;28;20052;-65
2022/11/23 06:53:38;;;;;;;29.05;17.08;;;10.70;99.90;;;;;;5026015;28;20029;-65
2022/11/23 06:56:04;;;;;;;27.58;19.35;;;10.50;99.90;;;;;;5021509;28;20072;-65
2022/11/23 06:58:30;;;;;;;30.50;17.88;;;10.70;99.90;;;;;;5026917;28;20068;-65
2022/11/23 07:01:00;;;;;;;31.25;19.02;;;10.70;99.90;;;;;;5028446;28;20065;-65
2022/11/23 07:03:26;;;;;;;29.15;17.17;;;10.70;99.90;;;;;;5027261;28;20041;-65
2022/11/23 07:05:52;;;;;;;29.35;15.68;;;10.80;99.90;;;;;;5027167;28;20171;-65
2022/11/23 07:08:18;;;;;;;22.20;13.93;;;10.70;99.90;;;;;;5027030;28;20125;-65
2022/11/23 07:10:43;;;;;;;30.00;18.52;;;10.70;99.90;;;;;;5025804;28;20045;-65
2022/11/23 07:13:10;;;;;;;26.10;16.60;;;10.50;99.90;;;;;;5030883;28;20123;-65
2022/11/23 07:15:36;;;;;;;29.83;17.17;;;10.70;99.90;;;;;;5023963;28;20038;-65
2022/11/23 07:18:02;;;;;;;32.95;20.15;;;10.70;99.90;;;;;;5023018;28;20041;-64
2022/11/23 07:20:27;;;;;;;24.13;14.98;;;10.60;99.90;;;;;;5024512;28;20132;-65
2022/11/23 07:23:07;;;;;;;23.52;15.18;;;10.50;99.90;;;;;;5027638;28;20392;-64
2022/11/23 07:25:36;;;;;;;20.90;13.95;;;10.70;99.90;;;;;;5029019;28;20041;-64
2022/11/23 07:28:04;;;;;;;23.05;13.40;;;10.60;99.90;;;;;;5019560;28;20045;-65
2022/11/23 07:30:31;;;;;;;24.48;13.57;;;10.60;99.90;;;;;;5023277;28;20041;-65
2022/11/23 07:33:00;;;;;;;27.08;16.52;;;10.80;99.90;;;;;;5024932;28;20457;-64
2022/11/23 07:35:27;;;;;;;25.10;13.70;;;10.80;99.90;;;;;;5027920;28;20041;-64
2022/11/23 07:37:52;;;;;;;24.35;13.80;;;10.90;99.90;;;;;;5029814;28;20458;-65
2022/11/23 07:40:18;;;;;;;23.80;14.48;;;10.80;99.90;;;;;;5026979;28;20069;-65
2022/11/23 07:42:43;;;;;;;24.58;13.82;;;10.90;99.90;;;;;;5029075;28;20041;-65
2022/11/23 07:45:10;;;;;;;21.50;13.27;;;10.90;99.90;;;;;;5028243;28;20041;-65
2022/11/23 07:47:36;;;;;;;25.83;14.75;;;10.70;99.90;;;;;;5027805;28;20037;-65
2022/11/23 07:50:01;;;;;;;28.25;15.45;;;10.70;99.90;;;;;;5025415;28;20033;-65
2022/11/23 07:52:28;;;;;;;21.35;12.82;;;10.70;99.90;;;;;;5032843;28;20450;-64
2022/11/23 07:54:54;;;;;;;26.77;15.30;;;10.70;99.90;;;;;;5030341;28;20112;-64
2022/11/23 07:57:19;;;;;;;16.83;11.18;;;10.90;99.90;;;;;;5034916;28;20129;-65
2022/11/23 07:59:45;;;;;;;23.02;12.60;;;10.80;99.90;;;;;;5033214;28;20034;-65
2022/11/23 08:02:13;;;;;;;20.60;11.93;;;10.90;99.90;;;;;;5025681;28;20099;-64
2022/11/23 08:04:39;;;;;;;16.88;10.85;;;10.90;99.90;;;;;;5030438;28;20037;-64
2022/11/23 08:07:04;;;;;;;21.25;12.88;;;10.90;99.90;;;;;;5032897;28;20087;-64
2022/11/23 08:09:30;;;;;;;17.63;9.85;;;10.70;99.90;;;;;;5030822;28;20100;-65
2022/11/23 08:11:56;;;;;;;19.00;10.23;;;10.90;99.90;;;;;;5033978;28;20046;-65
2022/11/23 08:14:22;;;;;;;20.95;10.00;;;10.90;99.90;;;;;;5033881;28;20403;-65
2022/11/23 08:16:49;;;;;;;21.73;11.07;;;10.90;99.90;;;;;;5033057;28;20033;-65
2022/11/23 08:19:16;;;;;;;19.23;9.60;;;10.80;99.90;;;;;;5028889;28;20160;-65
2022/11/23 08:21:41;;;;;;;19.52;10.70;;;10.80;99.90;;;;;;5028776;28;20095;-65
2022/11/23 08:24:07;;;;;;;14.77;10.30;;;10.80;99.90;;;;;;5031963;28;20034;-65
2022/11/23 08:26:33;;;;;;;15.70;8.40;;;11.00;99.90;;;;;;5028839;28;20036;-65
2022/11/23 08:28:58;;;;;;;23.55;12.00;;;10.90;99.90;;;;;;5033224;28;20075;-65
2022/11/23 08:31:24;;;;;;;15.68;9.13;;;10.90;99.90;;;;;;5034894;28;20033;-65
2022/11/23 08:33:49;;;;;;;17.23;11.85;;;10.90;99.90;;;;;;5027696;28;20048;-65
2022/11/23 08:36:15;;;;;;;17.33;9.82;;;10.90;99.90;;;;;;5030257;28;20506;-65
2022/11/23 08:38:41;;;;;;;17.70;11.00;;;10.90;99.90;;;;;;5032535;28;20464;-65
2022/11/23 08:41:06;;;;;;;14.15;9.55;;;10.90;99.90;;;;;;5033060;28;20033;-65
2022/11/23 08:43:33;;;;;;;17.05;9.30;;;11.00;99.90;;;;;;5032218;28;20112;-65
2022/11/23 08:46:00;;;;;;;20.17;10.65;;;11.20;99.90;;;;;;5027376;28;20103;-65
2022/11/23 08:48:26;;;;;;;16.92;9.50;;;11.00;99.90;;;;;;5021333;28;20069;-65
2022/11/23 08:50:52;;;;;;;22.48;12.40;;;11.40;99.90;;;;;;5021787;28;20033;-65
2022/11/23 08:53:17;;;;;;;19.27;12.02;;;11.00;99.90;;;;;;5030119;28;20041;-65
2022/11/23 08:55:43;;;;;;;19.50;9.65;;;11.20;99.90;;;;;;5030599;28;20056;-65
2022/11/23 08:58:09;;;;;;;17.83;12.50;;;11.00;99.90;;;;;;5022782;28;20045;-65
2022/11/23 09:00:35;;;;;;;18.92;10.32;;;11.00;99.90;;;;;;5029370;28;20034;-65
2022/11/23 09:03:00;;;;;;;18.13;9.50;;;10.90;99.90;;;;;;5032372;28;20064;-65
2022/11/23 09:05:27;;;;;;;15.32;8.77;;;11.50;99.90;;;;;;5028147;28;20064;-65
2022/11/23 09:08:00;;;;;;;21.55;10.32;;;10.90;99.90;;;;;;5024512;28;20037;-65
2022/11/23 09:10:26;;;;;;;15.45;8.38;;;11.10;99.90;;;;;;5026439;28;20487;-65
2022/11/23 09:12:52;;;;;;;16.70;10.15;;;10.90;99.90;;;;;;5032793;28;20049;-65
2022/11/23 09:15:18;;;;;;;17.42;9.82;;;10.90;99.90;;;;;;5016647;28;20045;-65
2022/11/23 09:17:43;;;;;;;20.08;11.07;;;10.90;99.90;;;;;;5032663;28;20076;-65
2022/11/23 09:20:10;;;;;;;17.02;10.05;;;11.00;99.90;;;;;;5032586;28;20034;-65
2022/11/23 09:22:35;;;;;;;18.48;11.05;;;10.90;99.90;;;;;;5029638;28;20048;-65
2022/11/23 09:25:02;;;;;;;23.20;11.38;;;10.90;99.90;;;;;;5030229;28;20399;-65
2022/11/23 09:27:28;;;;;;;19.20;8.85;;;11.10;99.90;;;;;;5028926;28;20495;-65
2022/11/23 09:29:54;;;;;;;22.73;10.07;;;11.00;99.90;;;;;;5030985;28;20180;-65
2022/11/23 09:32:19;;;;;;;23.05;11.05;;;10.90;99.90;;;;;;5033256;28;20049;-65
2022/11/23 09:34:45;;;;;;;19.67;11.50;;;11.00;99.90;;;;;;5029277;28;20562;-66
2022/11/23 09:37:11;;;;;;;15.57;9.32;;;11.20;99.90;;;;;;5029387;28;20026;-66
2022/11/23 09:39:37;;;;;;;20.17;8.82;;;11.10;99.90;;;;;;5025981;28;20481;-66
2022/11/23 09:42:29;;;;;;;18.08;8.73;;;11.00;99.90;;;;;;5027184;28;20037;-66
2022/11/23 09:45:32;;;;;;;20.00;8.90;;;11.20;99.90;;;;;;5026633;28;20049;-67
2022/11/23 09:48:31;;;;;;;21.08;9.38;;;11.20;99.90;;;;;;5029527;28;20132;-67
2022/11/23 09:51:16;;;;;;;11.80;6.20;;;11.10;99.90;;;;;;5039638;28;20095;-67
2022/11/23 09:53:55;;;;;;;19.13;6.20;;;11.20;99.90;;;;;;5026268;28;20080;-67
2022/11/23 09:56:29;;;;;;;22.20;6.40;;;11.20;99.90;;;;;;5027930;28;20049;-67
2022/11/23 09:58:59;;;;;;;22.38;4.60;;;11.20;99.90;;;;;;5026558;28;20030;-67
2022/11/23 10:01:29;;;;;;;15.52;4.30;;;11.30;99.90;;;;;;5025632;28;20045;-67
2022/11/23 10:03:55;;;;;;;14.35;3.88;;;11.30;99.90;;;;;;5022357;28;20038;-67
2022/11/23 10:06:28;;;;;;;11.23;3.35;;;11.50;99.90;;;;;;5011425;28;20041;-67
2022/11/23 10:09:31;;;;;;;19.77;3.80;;;11.50;99.90;;;;;;5018783;28;20046;-67
2022/11/23 10:12:11;;;;;;;11.57;3.70;;;11.70;1.00;;;;;;5035812;28;20108;-67
2022/11/23 10:14:57;;;;;;;14.18;3.08;;;11.60;99.90;;;;;;5016197;28;20061;-67
2022/11/23 10:18:04;;;;;;;8.68;2.92;;;11.60;79.50;;;;;;5022829;28;20040;-66
2022/11/23 10:20:52;;;;;;;9.13;3.58;;;11.50;99.90;;;;;;5019019;28;20049;-66
2022/11/23 10:23:29;;;;;;;15.35;3.65;;;11.50;99.90;;;;;;5026519;28;20451;-67
2022/11/23 10:25:55;;;;;;;12.02;3.20;;;11.40;99.90;;;;;;5028565;28;20045;-68
2022/11/23 10:28:23;;;;;;;9.82;3.42;;;11.40;41.50;;;;;;5026751;28;20047;-67
2022/11/23 10:30:55;;;;;;;10.85;3.28;;;11.50;1.00;;;;;;5025407;28;20048;-67
2022/11/23 10:33:32;;;;;;;12.60;3.92;;;11.50;99.90;;;;;;5025351;28;20056;-67
2022/11/23 10:35:58;;;;;;;13.73;4.05;;;11.40;99.90;;;;;;5025137;28;20076;-67
2022/11/23 10:38:27;;;;;;;19.80;3.38;;;11.50;99.90;;;;;;5026619;28;20494;-67
2022/11/23 10:40:57;;;;;;;11.57;3.40;;;11.50;99.90;;;;;;5026145;28;20045;-67
2022/11/23 10:43:27;;;;;;;12.77;3.55;;;11.60;29.40;;;;;;5024345;28;20050;-67
2022/11/23 10:46:41;;;;;;;20.30;4.28;;;11.60;99.90;;;;;;5025697;28;20411;-67
2022/11/23 10:49:15;;;;;;;17.55;4.13;;;11.60;1.00;;;;;;5012742;28;20045;-66
2022/11/23 10:51:52;;;;;;;11.25;3.55;;;11.60;99.90;;;;;;5023415;28;20042;-67
2022/11/23 10:54:28;;;;;;;18.88;3.83;;;11.70;1.00;;;;;;5025989;28;20506;-67
2022/11/23 10:56:55;;;;;;;11.82;2.95;;;11.60;99.90;;;;;;5027165;28;20045;-67
2022/11/23 10:59:31;;;;;;;9.90;3.03;;;11.70;99.90;;;;;;5025111;28;20419;-66
2022/11/23 11:01:59;;;;;;;;;;;11.80;1.00;;;;;;5028498;28;20041;-67
2022/11/23 11:04:25;;;;;;;10.70;3.92;;;11.90;1.00;;;;;;5022585;28;19921;-66
2022/11/23 11:06:50;;;;;;;16.55;3.28;;;11.90;99.90;;;;;;5015278;28;20510;-67
2022/11/23 11:09:20;;;;;;;9.88;3.10;;;11.70;1.00;;;;;;5027365;28;20045;-67
2022/11/23 11:11:49;;;;;;;15.70;3.05;;;11.70;1.00;;;;;;5025631;28;20061;-67
2022/11/23 11:14:22;;;;;;;14.23;2.78;;;11.50;99.90;;;;;;5025627;28;20128;-67
2022/11/23 11:16:56;;;;;;;11.18;2.97;;;11.50;99.90;;;;;;5022951;28;20080;-67
2022/11/23 11:19:27;;;;;;;13.63;3.22;;;11.60;99.90;;;;;;5028130;28;20042;-67
2022/11/23 11:21:54;;;;;;;13.38;3.42;;;11.60;99.90;;;;;;5024149;28;20056;-67
2022/11/23 11:24:27;;;;;;;13.88;3.95;;;11.60;99.90;;;;;;5024506;28;20103;-67
2022/11/23 11:26:59;;;;;;;10.27;3.03;;;11.50;1.00;;;;;;5026496;28;20045;-67
2022/11/23 11:29:42;;;;;;;10.75;2.97;;;11.30;1.00;;;;;;5025295;28;20040;-67
2022/11/23 11:32:24;;;;;;;9.20;3.00;;;11.30;99.90;;;;;;5030165;28;20030;-66
2022/11/23 11:34:59;;;;;;;8.43;2.35;;;11.40;99.90;;;;;;5029443;28;20106;-67
2022/11/23 11:37:43;;;;;;;8.07;2.10;;;11.40;99.90;;;;;;5027791;28;20483;-66
2022/11/23 11:40:20;;;;;;;14.13;3.88;;;11.70;99.40;;;;;;5026980;28;20030;-65
2022/11/23 11:43:10;;;;;;;9.50;2.60;;;11.70;99.90;;;;;;5025597;28;20091;-65
2022/11/23 11:45:42;;;;;;;12.82;2.78;;;11.90;1.00;;;;;;5001871;28;20095;-66
2022/11/23 11:48:23;;;;;;;9.48;2.10;;;11.90;99.90;;;;;;5028815;28;20033;-67
2022/11/23 11:51:26;;;;;;;4.15;1.92;;;11.70;99.90;;;;;;5027694;28;20068;-67
2022/11/23 11:54:19;;;;;;;15.15;3.17;;;11.70;99.90;;;;;;4983284;28;20136;-66
2022/11/23 11:56:49;;;;;;;12.65;2.67;;;11.70;1.00;;;;;;5017580;28;20427;-66
2022/11/23 11:59:27;;;;;;;12.95;2.80;;;11.60;1.00;;;;;;5020469;28;20177;-66
2022/11/23 12:02:14;;;;;;;14.63;3.33;;;11.40;1.00;;;;;;5027038;28;20049;-67
2022/11/23 12:04:48;;;;;;;;;;;11.40;1.00;;;;;;5024873;28;20041;-67
2022/11/23 12:07:28;;;;;;;14.00;2.75;;;11.50;99.90;;;;;;5031176;28;20317;-67
2022/11/23 12:10:00;;;;;;;19.23;2.58;;;11.60;99.90;;;;;;5030698;28;20371;-67
2022/11/23 12:12:27;;;;;;;8.65;2.25;;;11.60;99.90;;;;;;5026231;28;20061;-67
2022/11/23 12:14:52;;;;;;;8.77;2.38;;;11.50;99.90;;;;;;5029136;28;20388;-67
2022/11/23 12:17:44;;;;;;;9.73;2.17;;;11.50;99.90;;;;;;5017521;28;20045;-67
2022/11/23 12:20:37;;;;;;;15.07;3.00;;;11.50;99.90;;;;;;5015422;28;20038;-67
2022/11/23 12:23:23;;;;;;;9.07;2.40;;;11.50;99.90;;;;;;5030193;28;20037;-67
2022/11/23 12:25:57;;;;;;;14.15;2.80;;;11.50;99.90;;;;;;5029663;28;20041;-67
2022/11/23 12:28:36;;;;;;;12.40;2.63;;;11.50;99.90;;;;;;5029678;28;20072;-67
2022/11/23 12:31:02;;;;;;;14.45;3.08;;;11.50;99.90;;;;;;5029487;28;20076;-67
2022/11/23 12:34:12;;;;;;;11.70;2.47;;;11.40;99.90;;;;;;5029944;28;20081;-67
2022/11/23 12:36:38;;;;;;;9.32;2.63;;;11.40;73.40;;;;;;5030713;28;20072;-68
2022/11/23 12:39:53;;;;;;;12.02;2.65;;;11.40;30.40;;;;;;5034420;28;20064;-67
2022/11/23 12:42:41;;;;;;;13.32;2.65;;;11.50;55.60;;;;;;5021227;28;20042;-67